createdAt,value
2018-11-03T00:00:31.867Z,10.82
2018-11-03T00:01:36.254Z,10.72
2018-11-03T00:02:40.472Z,11.10
2018-11-03T00:03:44.601Z,11.70
2018-11-03T00:04:48.798Z,12.45
2018-11-03T00:05:52.968Z,10.93
2018-11-03T00:06:57.103Z,11.80
2018-11-03T00:08:01.231Z,12.73
2018-11-03T00:09:08.614Z,12.65
2018-11-03T00:10:12.805Z,13.43
2018-11-03T00:11:16.998Z,12.68
2018-11-03T00:12:21.256Z,13.13
2018-11-03T00:13:25.515Z,12.60
2018-11-03T00:14:29.614Z,12.80
2018-11-03T00:15:33.870Z,12.50
2018-11-03T00:16:38.448Z,12.28
2018-11-03T00:17:42.697Z,12.47
2018-11-03T00:18:46.826Z,11.25
2018-11-03T00:19:50.955Z,12.30
2018-11-03T00:20:55.363Z,11.95
2018-11-03T00:21:59.498Z,12.78
2018-11-03T00:23:04.203Z,11.95
2018-11-03T00:24:08.391Z,10.75
2018-11-03T00:25:12.553Z,12.07
2018-11-03T00:26:16.673Z,11.50
2018-11-03T00:27:21.177Z,11.60
2018-11-03T00:28:25.314Z,10.38
2018-11-03T00:29:29.479Z,12.18
2018-11-03T00:30:33.527Z,10.95
2018-11-03T00:31:37.754Z,11.33
2018-11-03T00:32:42.103Z,10.50
2018-11-03T00:33:46.563Z,10.80
2018-11-03T00:34:51.221Z,10.80
2018-11-03T00:35:55.377Z,12.63
2018-11-03T00:36:59.773Z,11.68
2018-11-03T00:38:04.163Z,12.55
2018-11-03T00:39:10.051Z,11.78
2018-11-03T00:40:14.976Z,11.85
2018-11-03T00:41:19.108Z,11.20
2018-11-03T00:42:23.394Z,11.05
2018-11-03T00:43:27.529Z,10.65
2018-11-03T00:44:31.719Z,11.10
2018-11-03T00:45:35.944Z,11.90
2018-11-03T00:46:40.096Z,12.80
2018-11-03T00:47:44.858Z,12.80
2018-11-03T00:48:48.901Z,12.73
2018-11-03T00:49:53.029Z,13.25
2018-11-03T00:50:57.243Z,12.20
2018-11-03T00:52:01.505Z,13.48
2018-11-03T00:53:05.868Z,12.75
2018-11-03T00:54:10.652Z,12.93
2018-11-03T00:55:15.199Z,14.07
2018-11-03T00:56:19.295Z,13.28
2018-11-03T00:57:23.403Z,13.98
2018-11-03T00:58:27.560Z,14.90
2018-11-03T00:59:31.697Z,12.10
2018-11-03T01:00:35.888Z,14.15
2018-11-03T01:01:39.985Z,12.85
2018-11-03T01:02:45.326Z,12.15
2018-11-03T01:03:49.531Z,13.18
2018-11-03T01:04:53.753Z,13.08
2018-11-03T01:05:57.945Z,11.25
2018-11-03T01:07:02.068Z,12.80
2018-11-03T01:08:06.527Z,12.65
2018-11-03T01:09:10.827Z,12.53
2018-11-03T01:10:16.729Z,12.65
2018-11-03T01:11:20.915Z,12.82
2018-11-03T01:12:25.215Z,12.40
2018-11-03T01:13:29.498Z,12.00
2018-11-03T01:14:33.730Z,12.45
2018-11-03T01:15:37.956Z,12.63
2018-11-03T01:16:43.157Z,12.55
2018-11-03T01:17:47.288Z,14.23
2018-11-03T01:18:51.537Z,13.48
2018-11-03T01:19:55.686Z,14.43
2018-11-03T01:21:00.033Z,14.30
2018-11-03T01:22:04.198Z,13.18
2018-11-03T01:23:08.312Z,13.00
2018-11-03T01:24:13.267Z,13.10
2018-11-03T01:25:17.373Z,13.30
2018-11-03T01:26:21.546Z,13.48
2018-11-03T01:27:26.143Z,14.90
2018-11-03T01:28:30.382Z,13.03
2018-11-03T01:29:34.525Z,13.55
2018-11-03T01:30:38.719Z,14.68
2018-11-03T01:31:42.781Z,14.75
2018-11-03T01:32:46.941Z,13.80
2018-11-03T01:33:51.072Z,15.25
2018-11-03T01:34:55.279Z,16.27
2018-11-03T01:35:59.951Z,13.43
2018-11-03T01:37:04.200Z,14.73
2018-11-03T01:38:08.353Z,16.95
2018-11-03T01:39:13.135Z,14.53
2018-11-03T01:40:17.231Z,15.43
2018-11-03T01:41:21.399Z,15.03
2018-11-03T01:42:25.531Z,13.60
2018-11-03T01:43:29.695Z,12.60
2018-11-03T01:44:33.849Z,14.47
2018-11-03T01:45:38.103Z,12.70
2018-11-03T01:46:42.240Z,14.10
2018-11-03T01:47:46.309Z,13.25
2018-11-03T01:48:50.435Z,13.13
2018-11-03T01:49:54.645Z,11.88
2018-11-03T01:50:58.706Z,12.70
2018-11-03T01:52:02.784Z,11.38
2018-11-03T01:53:06.899Z,12.18
2018-11-03T01:54:11.128Z,11.33
2018-11-03T01:55:15.381Z,10.80
2018-11-03T01:56:19.548Z,11.73
2018-11-03T01:57:23.743Z,11.90
2018-11-03T01:58:27.930Z,11.75
2018-11-03T01:59:31.997Z,13.08
2018-11-03T02:00:36.035Z,12.50
2018-11-03T02:01:40.418Z,11.63
2018-11-03T02:02:44.494Z,11.88
2018-11-03T02:03:48.586Z,11.12
2018-11-03T02:04:52.727Z,10.95
2018-11-03T02:05:56.989Z,10.68
2018-11-03T02:07:01.460Z,11.68
2018-11-03T02:08:05.691Z,12.68
2018-11-03T02:09:10.708Z,11.78
2018-11-03T02:10:14.865Z,10.58
2018-11-03T02:11:19.028Z,10.98
2018-11-03T02:12:23.083Z,11.50
2018-11-03T02:13:27.693Z,11.85
2018-11-03T02:14:31.800Z,10.80
2018-11-03T02:15:36.006Z,13.10
2018-11-03T02:16:40.054Z,10.53
2018-11-03T02:17:44.257Z,11.05
2018-11-03T02:18:48.386Z,10.75
2018-11-03T02:19:52.535Z,10.85
2018-11-03T02:20:57.004Z,12.28
2018-11-03T02:22:01.040Z,12.33
2018-11-03T02:23:05.473Z,12.07
2018-11-03T02:24:09.758Z,11.70
2018-11-03T02:25:13.846Z,11.53
2018-11-03T02:26:18.049Z,11.25
2018-11-03T02:27:22.117Z,10.82
2018-11-03T02:28:26.217Z,11.75
2018-11-03T02:29:30.387Z,11.90
2018-11-03T02:30:34.464Z,12.33
2018-11-03T02:31:38.622Z,10.98
2018-11-03T02:32:43.217Z,10.20
2018-11-03T02:33:47.415Z,12.23
2018-11-03T02:34:51.545Z,11.83
2018-11-03T02:35:55.692Z,11.45
2018-11-03T02:36:59.842Z,12.58
2018-11-03T02:38:03.911Z,11.05
2018-11-03T02:39:08.799Z,12.15
2018-11-03T02:40:13.475Z,12.80
2018-11-03T02:41:17.606Z,11.80
2018-11-03T02:42:21.687Z,11.83
2018-11-03T02:43:26.054Z,11.45
2018-11-03T02:44:30.209Z,11.95
2018-11-03T02:45:34.295Z,11.85
2018-11-03T02:46:38.481Z,12.40
2018-11-03T02:47:42.732Z,11.05
2018-11-03T02:48:46.875Z,12.37
2018-11-03T02:49:51.018Z,12.30
2018-11-03T02:50:55.189Z,12.43
2018-11-03T02:51:59.390Z,11.65
2018-11-03T02:53:03.550Z,12.28
2018-11-03T02:54:07.720Z,11.10
2018-11-03T02:55:11.838Z,11.00
2018-11-03T02:56:16.084Z,11.95
2018-11-03T02:57:20.213Z,12.93
2018-11-03T02:58:24.663Z,12.63
2018-11-03T02:59:29.042Z,13.05
2018-11-03T03:00:33.147Z,13.78
2018-11-03T03:01:37.249Z,12.15
2018-11-03T03:02:41.393Z,12.70
2018-11-03T03:03:45.601Z,12.70
2018-11-03T03:04:49.753Z,11.75
2018-11-03T03:05:53.891Z,12.20
2018-11-03T03:06:58.094Z,13.65
2018-11-03T03:08:02.402Z,12.90
2018-11-03T03:09:07.342Z,12.95
2018-11-03T03:10:12.764Z,13.10
2018-11-03T03:11:16.988Z,12.90
2018-11-03T03:12:21.120Z,12.50
2018-11-03T03:13:25.385Z,13.45
2018-11-03T03:14:30.295Z,12.90
2018-11-03T03:15:34.367Z,13.32
2018-11-03T03:16:38.477Z,13.48
2018-11-03T03:17:43.225Z,12.65
2018-11-03T03:18:47.455Z,13.83
2018-11-03T03:19:51.879Z,13.70
2018-11-03T03:20:56.039Z,13.45
2018-11-03T03:22:00.237Z,12.73
2018-11-03T03:23:05.762Z,12.88
2018-11-03T03:24:09.899Z,13.13
2018-11-03T03:25:14.101Z,12.10
2018-11-03T03:26:22.594Z,12.70
2018-11-03T03:27:26.859Z,11.88
2018-11-03T03:28:31.070Z,11.83
2018-11-03T03:29:35.241Z,13.40
2018-11-03T03:30:39.355Z,11.83
2018-11-03T03:31:43.529Z,12.78
2018-11-03T03:32:47.590Z,12.70
2018-11-03T03:33:51.691Z,12.28
2018-11-03T03:34:55.840Z,13.13
2018-11-03T03:35:59.948Z,12.70
2018-11-03T03:37:04.224Z,12.93
2018-11-03T03:38:08.509Z,12.30
2018-11-03T03:39:12.719Z,13.08
2018-11-03T03:40:16.886Z,12.23
2018-11-03T03:41:21.182Z,13.00
2018-11-03T03:42:25.221Z,12.00
2018-11-03T03:43:29.337Z,11.70
2018-11-03T03:44:33.438Z,11.95
2018-11-03T03:45:37.585Z,11.68
2018-11-03T03:46:41.649Z,15.23
2018-11-03T03:47:45.821Z,12.88
2018-11-03T03:48:49.972Z,12.65
2018-11-03T03:49:54.132Z,12.25
2018-11-03T03:50:58.239Z,13.70
2018-11-03T03:52:02.371Z,12.37
2018-11-03T03:53:06.563Z,13.30
2018-11-03T03:54:10.780Z,13.38
2018-11-03T03:55:14.926Z,13.00
2018-11-03T03:56:19.112Z,12.65
2018-11-03T03:57:23.262Z,11.90
2018-11-03T03:58:27.305Z,12.85
2018-11-03T03:59:31.428Z,12.63
2018-11-03T04:00:36.055Z,12.85
2018-11-03T04:01:40.098Z,13.20
2018-11-03T04:02:44.248Z,13.03
2018-11-03T04:03:48.365Z,12.78
2018-11-03T04:04:52.416Z,12.10
2018-11-03T04:05:56.787Z,11.80
2018-11-03T04:07:00.857Z,12.73
2018-11-03T04:08:05.332Z,13.08
2018-11-03T04:09:10.208Z,11.85
2018-11-03T04:10:14.345Z,13.00
2018-11-03T04:11:18.374Z,12.80
2018-11-03T04:12:22.403Z,13.18
2018-11-03T04:13:26.544Z,12.55
2018-11-03T04:14:30.667Z,12.28
2018-11-03T04:15:34.823Z,13.38
2018-11-03T04:16:38.931Z,11.60
2018-11-03T04:17:43.078Z,11.88
2018-11-03T04:18:47.259Z,11.95
2018-11-03T04:19:51.358Z,13.30
2018-11-03T04:20:55.490Z,12.63
2018-11-03T04:21:59.601Z,12.88
2018-11-03T04:23:03.853Z,13.13
2018-11-03T04:24:08.089Z,12.63
2018-11-03T04:25:12.232Z,12.10
2018-11-03T04:26:16.348Z,13.22
2018-11-03T04:27:20.421Z,12.00
2018-11-03T04:28:24.542Z,12.58
2018-11-03T04:29:28.687Z,11.40
2018-11-03T04:30:32.748Z,12.47
2018-11-03T04:31:36.907Z,12.07
2018-11-03T04:32:41.033Z,12.13
2018-11-03T04:33:45.566Z,11.57
2018-11-03T04:34:49.803Z,14.28
2018-11-03T04:35:54.017Z,11.93
2018-11-03T04:36:58.218Z,12.18
2018-11-03T04:38:02.633Z,12.13
2018-11-03T04:39:07.459Z,12.07
2018-11-03T04:40:12.695Z,12.50
2018-11-03T04:41:16.796Z,12.03
2018-11-03T04:42:20.876Z,12.82
2018-11-03T04:43:24.983Z,13.58
2018-11-03T04:44:29.070Z,12.85
2018-11-03T04:45:33.218Z,13.80
2018-11-03T04:46:37.404Z,15.10
2018-11-03T04:47:41.520Z,12.45
2018-11-03T04:48:45.640Z,14.20
2018-11-03T04:49:49.759Z,12.55
2018-11-03T04:50:53.968Z,12.75
2018-11-03T04:51:58.063Z,12.93
2018-11-03T04:53:02.629Z,12.75
2018-11-03T04:54:06.744Z,13.13
2018-11-03T04:55:10.995Z,12.35
2018-11-03T04:56:15.101Z,13.43
2018-11-03T04:57:19.216Z,12.47
2018-11-03T04:58:23.379Z,12.33
2018-11-03T04:59:27.524Z,13.00
2018-11-03T05:00:31.569Z,13.13
2018-11-03T05:01:35.693Z,13.60
2018-11-03T05:02:39.787Z,13.43
2018-11-03T05:03:44.040Z,12.98
2018-11-03T05:04:48.131Z,13.18
2018-11-03T05:05:52.339Z,12.60
2018-11-03T05:06:56.545Z,13.15
2018-11-03T05:08:00.599Z,11.88
2018-11-03T05:09:07.152Z,12.30
2018-11-03T05:10:11.293Z,13.20
2018-11-03T05:11:15.377Z,12.00
2018-11-03T05:12:19.490Z,12.65
2018-11-03T05:13:23.716Z,13.32
2018-11-03T05:14:27.819Z,13.60
2018-11-03T05:15:32.279Z,12.85
2018-11-03T05:16:36.897Z,13.72
2018-11-03T05:17:41.054Z,13.53
2018-11-03T05:18:45.173Z,12.60
2018-11-03T05:19:49.272Z,12.05
2018-11-03T05:20:53.566Z,14.28
2018-11-03T05:21:57.734Z,13.72
2018-11-03T05:23:01.932Z,12.65
2018-11-03T05:24:06.061Z,14.05
2018-11-03T05:25:10.198Z,12.75
2018-11-03T05:26:14.415Z,12.78
2018-11-03T05:27:18.565Z,12.37
2018-11-03T05:28:22.707Z,13.53
2018-11-03T05:29:26.872Z,13.20
2018-11-03T05:30:30.999Z,12.58
2018-11-03T05:31:35.167Z,13.55
2018-11-03T05:32:39.338Z,12.82
2018-11-03T05:33:43.427Z,12.75
2018-11-03T05:34:47.565Z,13.43
2018-11-03T05:35:51.696Z,14.38
2018-11-03T05:36:55.855Z,13.72
2018-11-03T05:37:59.964Z,12.88
2018-11-03T05:39:05.098Z,13.15
2018-11-03T05:40:09.174Z,13.35
2018-11-03T05:41:13.338Z,13.55
2018-11-03T05:42:17.505Z,13.68
2018-11-03T05:43:21.631Z,13.95
2018-11-03T05:44:25.866Z,12.43
2018-11-03T05:45:29.969Z,13.15
2018-11-03T05:46:34.154Z,12.37
2018-11-03T05:47:38.220Z,12.98
2018-11-03T05:48:42.344Z,12.35
2018-11-03T05:49:46.587Z,13.10
2018-11-03T05:50:50.696Z,13.38
2018-11-03T05:51:54.797Z,13.40
2018-11-03T05:52:59.127Z,13.22
2018-11-03T05:54:03.304Z,13.98
2018-11-03T05:55:08.459Z,13.08
2018-11-03T05:56:12.516Z,13.13
2018-11-03T05:57:16.736Z,14.28
2018-11-03T05:58:20.774Z,13.68
2018-11-03T05:59:24.899Z,13.95
2018-11-03T06:00:29.003Z,14.15
2018-11-03T06:01:33.498Z,14.10
2018-11-03T06:02:37.595Z,13.20
2018-11-03T06:03:41.792Z,12.75
2018-11-03T06:04:45.866Z,14.25
2018-11-03T06:05:50.040Z,13.60
2018-11-03T06:06:54.240Z,14.00
2018-11-03T06:07:58.360Z,14.10
2018-11-03T06:09:02.720Z,14.28
2018-11-03T06:10:07.307Z,13.15
2018-11-03T06:11:11.552Z,14.15
2018-11-03T06:12:15.716Z,14.30
2018-11-03T06:13:19.813Z,14.23
2018-11-03T06:14:24.048Z,13.98
2018-11-03T06:15:28.235Z,12.40
2018-11-03T06:16:33.172Z,14.05
2018-11-03T06:17:37.292Z,13.70
2018-11-03T06:18:41.660Z,14.85
2018-11-03T06:19:45.716Z,13.72
2018-11-03T06:20:49.823Z,13.00
2018-11-03T06:21:53.888Z,12.68
2018-11-03T06:22:58.141Z,13.43
2018-11-03T06:24:02.227Z,12.20
2018-11-03T06:25:07.449Z,13.95
2018-11-03T06:26:11.557Z,12.88
2018-11-03T06:27:15.630Z,12.58
2018-11-03T06:28:19.825Z,13.08
2018-11-03T06:29:23.942Z,12.65
2018-11-03T06:30:28.400Z,12.65
2018-11-03T06:31:32.847Z,13.40
2018-11-03T06:32:37.215Z,12.95
2018-11-03T06:33:41.327Z,13.40
2018-11-03T06:34:45.760Z,13.00
2018-11-03T06:35:49.872Z,12.75
2018-11-03T06:36:53.933Z,14.03
2018-11-03T06:37:58.044Z,11.88
2018-11-03T06:39:02.340Z,13.78
2018-11-03T06:40:07.303Z,12.15
2018-11-03T06:41:11.535Z,15.00
2018-11-03T06:42:15.709Z,13.68
2018-11-03T06:43:20.242Z,14.40
2018-11-03T06:44:24.349Z,13.13
2018-11-03T06:45:28.479Z,13.00
2018-11-03T06:46:33.191Z,13.20
2018-11-03T06:47:37.469Z,13.70
2018-11-03T06:48:41.482Z,13.30
2018-11-03T06:49:45.621Z,12.18
2018-11-03T06:50:49.768Z,13.35
2018-11-03T06:51:54.175Z,13.62
2018-11-03T06:52:58.392Z,13.78
2018-11-03T06:54:03.281Z,13.85
2018-11-03T06:55:07.832Z,11.90
2018-11-03T06:56:11.932Z,13.25
2018-11-03T06:57:15.999Z,13.32
2018-11-03T06:58:20.904Z,12.93
2018-11-03T06:59:25.007Z,15.05
2018-11-03T07:00:29.168Z,13.50
2018-11-03T07:01:33.313Z,13.03
2018-11-03T07:02:37.691Z,13.25
2018-11-03T07:03:42.065Z,13.10
2018-11-03T07:04:46.168Z,13.65
2018-11-03T07:05:50.408Z,13.18
2018-11-03T07:06:54.528Z,13.08
2018-11-03T07:07:58.790Z,12.43
2018-11-03T07:09:02.896Z,12.90
2018-11-03T07:10:07.841Z,13.38
2018-11-03T07:11:12.461Z,13.78
2018-11-03T07:12:16.793Z,12.43
2018-11-03T07:13:20.833Z,13.43
2018-11-03T07:14:24.871Z,13.75
2018-11-03T07:15:29.176Z,13.93
2018-11-03T07:16:33.701Z,13.45
2018-11-03T07:17:37.969Z,13.40
2018-11-03T07:18:42.487Z,15.70
2018-11-03T07:19:46.652Z,13.40
2018-11-03T07:20:50.755Z,12.85
2018-11-03T07:21:55.398Z,13.65
2018-11-03T07:22:59.713Z,12.37
2018-11-03T07:24:03.845Z,12.40
2018-11-03T07:25:08.265Z,12.90
2018-11-03T07:26:12.432Z,13.18
2018-11-03T07:27:16.521Z,13.53
2018-11-03T07:28:20.552Z,13.93
2018-11-03T07:29:24.865Z,15.90
2018-11-03T07:30:28.907Z,13.38
2018-11-03T07:31:33.082Z,12.65
2018-11-03T07:32:37.355Z,14.23
2018-11-03T07:33:41.960Z,13.70
2018-11-03T07:34:46.136Z,13.28
2018-11-03T07:35:50.163Z,15.10
2018-11-03T07:36:54.333Z,13.85
2018-11-03T07:37:58.974Z,13.58
2018-11-03T07:39:03.385Z,14.45
2018-11-03T07:40:08.393Z,14.58
2018-11-03T07:41:12.641Z,14.60
2018-11-03T07:42:16.801Z,15.10
2018-11-03T07:43:20.958Z,15.20
2018-11-03T07:44:25.432Z,14.18
2018-11-03T07:45:29.653Z,15.00
2018-11-03T07:46:33.798Z,14.18
2018-11-03T07:47:38.020Z,15.55
2018-11-03T07:48:42.315Z,13.93
2018-11-03T07:49:46.312Z,15.53
2018-11-03T07:50:50.458Z,15.90
2018-11-03T07:51:54.527Z,14.15
2018-11-03T07:52:58.723Z,15.40
2018-11-03T07:54:02.966Z,14.60
2018-11-03T07:55:08.745Z,15.15
2018-11-03T07:56:12.980Z,14.20
2018-11-03T07:57:17.059Z,14.40
2018-11-03T07:58:21.232Z,15.25
2018-11-03T07:59:25.431Z,15.23
2018-11-03T08:00:29.603Z,15.18
2018-11-03T08:01:33.690Z,15.25
2018-11-03T08:02:37.801Z,15.43
2018-11-03T08:03:42.102Z,14.60
2018-11-03T08:04:46.270Z,16.48
2018-11-03T08:05:50.354Z,15.95
2018-11-03T08:06:54.600Z,14.95
2018-11-03T08:07:58.808Z,15.58
2018-11-03T08:09:03.156Z,14.80
2018-11-03T08:10:08.155Z,14.68
2018-11-03T08:11:12.245Z,15.43
2018-11-03T08:12:16.497Z,16.95
2018-11-03T08:13:20.587Z,16.55
2018-11-03T08:14:24.813Z,16.00
2018-11-03T08:15:29.356Z,15.72
2018-11-03T08:16:33.614Z,15.20
2018-11-03T08:17:37.719Z,15.83
2018-11-03T08:18:41.829Z,15.68
2018-11-03T08:19:46.092Z,16.60
2018-11-03T08:20:50.199Z,16.52
2018-11-03T08:21:54.437Z,16.40
2018-11-03T08:22:59.882Z,16.52
2018-11-03T08:24:04.048Z,17.80
2018-11-03T08:25:08.532Z,18.42
2018-11-03T08:26:12.628Z,15.80
2018-11-03T08:27:16.781Z,17.20
2018-11-03T08:28:20.847Z,15.90
2018-11-03T08:29:24.990Z,17.45
2018-11-03T08:30:29.148Z,17.02
2018-11-03T08:31:33.269Z,16.40
2018-11-03T08:32:37.478Z,16.50
2018-11-03T08:33:41.667Z,17.30
2018-11-03T08:34:46.045Z,17.57
2018-11-03T08:35:50.177Z,17.17
2018-11-03T08:36:54.301Z,16.55
2018-11-03T08:37:58.345Z,15.78
2018-11-03T08:39:02.553Z,16.00
2018-11-03T08:40:08.231Z,17.27
2018-11-03T08:41:12.340Z,16.42
2018-11-03T08:42:16.473Z,17.17
2018-11-03T08:43:20.541Z,16.93
2018-11-03T08:44:24.683Z,17.98
2018-11-03T08:45:28.870Z,18.35
2018-11-03T08:46:32.964Z,16.93
2018-11-03T08:47:37.256Z,18.48
2018-11-03T08:48:41.433Z,18.60
2018-11-03T08:49:45.426Z,18.65
2018-11-03T08:50:49.692Z,17.42
2018-11-03T08:51:53.864Z,18.23
2018-11-03T08:52:58.086Z,17.92
2018-11-03T08:54:02.476Z,19.65
2018-11-03T08:55:07.867Z,18.62
2018-11-03T08:56:11.961Z,18.82
2018-11-03T08:57:17.468Z,18.35
2018-11-03T08:58:21.701Z,17.20
2018-11-03T08:59:25.855Z,19.80
2018-11-03T09:00:29.951Z,19.12
2018-11-03T09:01:34.050Z,18.45
2018-11-03T09:02:38.381Z,20.55
2018-11-03T09:03:42.537Z,19.55
2018-11-03T09:04:46.726Z,27.32
2018-11-03T09:05:50.815Z,19.50
2018-11-03T09:06:55.068Z,18.77
2018-11-03T09:07:59.210Z,19.57
2018-11-03T09:09:03.701Z,20.43
2018-11-03T09:10:10.291Z,20.10
2018-11-03T09:11:14.384Z,19.17
2018-11-03T09:12:18.479Z,19.30
2018-11-03T09:13:22.688Z,19.32
2018-11-03T09:14:26.917Z,19.73
2018-11-03T09:15:30.988Z,19.75
2018-11-03T09:16:35.442Z,19.80
2018-11-03T09:17:40.466Z,20.00
2018-11-03T09:18:45.179Z,18.90
2018-11-03T09:19:49.380Z,20.75
2018-11-03T09:20:53.615Z,21.97
2018-11-03T09:21:57.782Z,20.08
2018-11-03T09:23:01.858Z,19.42
2018-11-03T09:24:06.261Z,19.05
2018-11-03T09:25:13.086Z,20.50
2018-11-03T09:26:17.455Z,19.95
2018-11-03T09:27:21.665Z,19.55
2018-11-03T09:28:25.794Z,21.17
2018-11-03T09:29:29.861Z,17.80
2018-11-03T09:30:34.151Z,19.45
2018-11-03T09:31:38.326Z,20.10
2018-11-03T09:32:42.549Z,19.95
2018-11-03T09:33:46.784Z,19.30
2018-11-03T09:34:50.970Z,20.75
2018-11-03T09:35:55.091Z,18.52
2018-11-03T09:36:59.914Z,19.62
2018-11-03T09:38:04.028Z,19.12
2018-11-03T09:39:09.447Z,20.45
2018-11-03T09:40:16.324Z,20.12
2018-11-03T09:41:20.609Z,20.35
2018-11-03T09:42:24.786Z,19.50
2018-11-03T09:43:29.050Z,18.92
2018-11-03T09:44:33.375Z,20.65
2018-11-03T09:45:37.604Z,20.35
2018-11-03T09:46:41.671Z,21.10
2018-11-03T09:47:46.276Z,21.15
2018-11-03T09:48:50.542Z,21.73
2018-11-03T09:49:54.759Z,22.50
2018-11-03T09:50:58.988Z,22.87
2018-11-03T09:52:10.310Z,23.40
2018-11-03T09:53:14.528Z,22.42
2018-11-03T09:54:18.805Z,23.27
2018-11-03T09:55:23.434Z,25.27
2018-11-03T09:56:27.605Z,22.20
2018-11-03T09:57:31.733Z,25.20
2018-11-03T09:58:35.950Z,23.87
2018-11-03T09:59:40.053Z,23.67
2018-11-03T10:00:44.272Z,24.63
2018-11-03T10:01:48.457Z,24.63
2018-11-03T10:02:52.512Z,24.82
2018-11-03T10:03:56.654Z,27.42
2018-11-03T10:05:00.780Z,24.07
2018-11-03T10:06:05.233Z,25.17
2018-11-03T10:07:09.458Z,25.40
2018-11-03T10:08:13.690Z,24.75
2018-11-03T10:09:17.821Z,26.30
2018-11-03T10:10:21.890Z,25.05
2018-11-03T10:11:26.748Z,25.32
2018-11-03T10:12:31.179Z,25.82
2018-11-03T10:13:35.280Z,26.33
2018-11-03T10:14:39.650Z,27.98
2018-11-03T10:15:43.911Z,25.35
2018-11-03T10:16:48.149Z,24.70
2018-11-03T10:17:52.391Z,23.22
2018-11-03T10:18:56.546Z,25.12
2018-11-03T10:20:00.688Z,23.85
2018-11-03T10:21:05.137Z,24.30
2018-11-03T10:22:15.645Z,24.50
2018-11-03T10:23:19.692Z,24.37
2018-11-03T10:24:24.549Z,22.90
2018-11-03T10:25:28.835Z,23.12
2018-11-03T10:26:33.030Z,25.85
2018-11-03T10:27:37.280Z,24.40
2018-11-03T10:28:41.478Z,24.43
2018-11-03T10:29:46.527Z,24.80
2018-11-03T10:30:50.601Z,26.70
2018-11-03T10:31:54.720Z,24.30
2018-11-03T10:32:58.829Z,22.55
2018-11-03T10:34:02.904Z,21.85
2018-11-03T10:35:07.650Z,22.80
2018-11-03T10:36:11.799Z,23.00
2018-11-03T10:37:16.034Z,23.62
2018-11-03T10:38:20.324Z,23.35
2018-11-03T10:39:24.489Z,21.77
2018-11-03T10:40:28.550Z,21.57
2018-11-03T10:41:32.653Z,20.90
2018-11-03T10:42:36.786Z,21.60
2018-11-03T10:43:40.971Z,18.75
2018-11-03T10:44:45.091Z,18.50
2018-11-03T10:45:49.251Z,19.37
2018-11-03T10:46:53.385Z,19.75
2018-11-03T10:47:57.531Z,18.87
2018-11-03T10:49:01.681Z,18.90
2018-11-03T10:50:09.033Z,19.52
2018-11-03T10:51:13.173Z,19.40
2018-11-03T10:52:17.425Z,18.80
2018-11-03T10:53:21.514Z,20.20
2018-11-03T10:54:25.615Z,19.75
2018-11-03T10:55:30.041Z,21.50
2018-11-03T10:56:34.222Z,19.90
2018-11-03T10:57:38.376Z,19.90
2018-11-03T10:58:42.658Z,20.35
2018-11-03T10:59:46.743Z,20.95
2018-11-03T11:00:56.219Z,20.68
2018-11-03T11:02:05.436Z,18.20
2018-11-03T11:03:14.903Z,19.37
2018-11-03T11:04:24.512Z,21.80
2018-11-03T11:05:34.522Z,19.37
2018-11-03T11:06:44.144Z,20.90
2018-11-03T11:07:53.541Z,20.62
2018-11-03T11:09:02.895Z,20.20
2018-11-03T11:10:12.299Z,20.77
2018-11-03T11:11:21.927Z,21.37
2018-11-03T11:12:31.447Z,19.95
2018-11-03T11:13:36.933Z,22.40
2018-11-03T11:14:42.461Z,22.52
2018-11-03T11:15:46.604Z,22.67
2018-11-03T11:16:51.692Z,23.02
2018-11-03T11:17:55.934Z,22.25
2018-11-03T11:18:59.977Z,22.87
2018-11-03T11:20:04.169Z,22.25
2018-11-03T11:21:08.611Z,23.55
2018-11-03T11:22:12.808Z,23.42
2018-11-03T11:23:17.422Z,23.50
2018-11-03T11:24:21.735Z,25.37
2018-11-03T11:25:26.059Z,24.80
2018-11-03T11:26:30.355Z,24.90
2018-11-03T11:27:34.687Z,26.82
2018-11-03T11:28:38.853Z,25.27
2018-11-03T11:29:46.367Z,24.95
2018-11-03T11:30:50.837Z,25.80
2018-11-03T11:31:55.143Z,28.05
2018-11-03T11:32:59.167Z,28.17
2018-11-03T11:34:03.724Z,27.37
2018-11-03T11:35:07.826Z,27.73
2018-11-03T11:36:12.033Z,28.62
2018-11-03T11:37:16.222Z,27.70
2018-11-03T11:38:20.945Z,26.45
2018-11-03T11:39:25.532Z,24.77
2018-11-03T11:40:29.616Z,24.40
2018-11-03T11:41:34.124Z,26.20
2018-11-03T11:42:38.283Z,27.00
2018-11-03T11:43:42.452Z,27.15
2018-11-03T11:44:46.656Z,25.50
2018-11-03T11:45:50.882Z,28.02
2018-11-03T11:46:55.059Z,27.10
2018-11-03T11:47:59.505Z,26.80
2018-11-03T11:49:03.713Z,26.25
2018-11-03T11:50:07.879Z,26.35
2018-11-03T11:51:12.196Z,26.90
2018-11-03T11:52:16.323Z,27.00
2018-11-03T11:53:20.633Z,26.15
2018-11-03T11:54:24.731Z,26.35
2018-11-03T11:55:29.070Z,26.77
2018-11-03T11:56:33.268Z,26.57
2018-11-03T11:57:37.418Z,27.70
2018-11-03T11:58:41.652Z,26.10
2018-11-03T11:59:45.865Z,25.12
2018-11-03T12:00:50.342Z,26.33
2018-11-03T12:01:54.541Z,26.97
2018-11-03T12:02:58.766Z,29.85
2018-11-03T12:04:02.855Z,29.07
2018-11-03T12:05:06.953Z,27.25
2018-11-03T12:06:11.101Z,25.90
2018-11-03T12:07:15.378Z,27.02
2018-11-03T12:08:19.584Z,24.70
2018-11-03T12:09:23.692Z,27.75
2018-11-03T12:10:27.868Z,26.45
2018-11-03T12:11:31.999Z,27.82
2018-11-03T12:12:36.139Z,28.35
2018-11-03T12:13:40.336Z,24.12
2018-11-03T12:14:44.546Z,22.20
2018-11-03T12:15:48.545Z,21.87
2018-11-03T12:16:52.988Z,21.77
2018-11-03T12:17:57.079Z,22.42
2018-11-03T12:19:01.213Z,22.00
2018-11-03T12:20:05.345Z,22.07
2018-11-03T12:21:09.534Z,22.60
2018-11-03T12:22:13.603Z,25.45
2018-11-03T12:23:17.723Z,25.50
2018-11-03T12:24:21.976Z,24.32
2018-11-03T12:25:26.155Z,25.48
2018-11-03T12:26:30.263Z,24.15
2018-11-03T12:27:34.441Z,23.55
2018-11-03T12:28:38.632Z,24.50
2018-11-03T12:29:42.684Z,22.40
2018-11-03T12:30:46.871Z,23.60
2018-11-03T12:31:51.006Z,22.37
2018-11-03T12:32:55.148Z,23.87
2018-11-03T12:33:59.494Z,21.57
2018-11-03T12:35:03.636Z,24.30
2018-11-03T12:36:07.740Z,24.18
2018-11-03T12:37:11.920Z,23.10
2018-11-03T12:38:15.978Z,22.30
2018-11-03T12:39:20.208Z,22.50
2018-11-03T12:40:24.379Z,22.05
2018-11-03T12:41:28.730Z,22.67
2018-11-03T12:42:32.752Z,21.20
2018-11-03T12:43:36.946Z,21.27
2018-11-03T12:44:41.159Z,20.20
2018-11-03T12:45:45.262Z,20.65
2018-11-03T12:46:49.478Z,21.85
2018-11-03T12:47:53.616Z,22.48
2018-11-03T12:48:57.747Z,20.80
2018-11-03T12:50:02.282Z,21.48
2018-11-03T12:51:06.419Z,20.57
2018-11-03T12:52:10.532Z,20.88
2018-11-03T12:53:14.768Z,18.75
2018-11-03T12:54:19.243Z,19.15
2018-11-03T12:55:23.777Z,20.05
2018-11-03T12:56:27.736Z,19.17
2018-11-03T12:57:31.942Z,18.25
2018-11-03T12:58:36.070Z,17.30
2018-11-03T12:59:40.433Z,17.17
2018-11-03T13:00:44.516Z,17.57
2018-11-03T13:01:48.894Z,18.65
2018-11-03T13:02:53.009Z,19.75
2018-11-03T13:03:57.228Z,18.75
2018-11-03T13:05:01.491Z,19.05
2018-11-03T13:06:05.575Z,17.73
2018-11-03T13:07:09.762Z,17.07
2018-11-03T13:08:13.861Z,16.17
2018-11-03T13:09:18.085Z,16.35
2018-11-03T13:10:22.469Z,15.95
2018-11-03T13:11:26.592Z,14.98
2018-11-03T13:12:30.671Z,15.45
2018-11-03T13:13:34.771Z,14.38
2018-11-03T13:14:38.981Z,12.88
2018-11-03T13:15:43.096Z,15.03
2018-11-03T13:16:47.309Z,17.02
2018-11-03T13:17:51.735Z,16.42
2018-11-03T13:18:56.051Z,17.20
2018-11-03T13:20:00.243Z,17.17
2018-11-03T13:21:04.400Z,15.63
2018-11-03T13:22:08.544Z,16.17
2018-11-03T13:23:12.936Z,16.60
2018-11-03T13:24:17.251Z,17.40
2018-11-03T13:25:21.367Z,15.70
2018-11-03T13:26:25.571Z,16.30
2018-11-03T13:27:29.745Z,15.25
2018-11-03T13:28:33.936Z,15.80
2018-11-03T13:29:38.064Z,16.27
2018-11-03T13:30:42.250Z,15.00
2018-11-03T13:31:46.591Z,15.53
2018-11-03T13:32:50.863Z,16.15
2018-11-03T13:33:54.995Z,16.48
2018-11-03T13:34:59.196Z,16.23
2018-11-03T13:36:03.509Z,15.05
2018-11-03T13:37:08.196Z,15.48
2018-11-03T13:38:12.263Z,15.83
2018-11-03T13:39:16.492Z,14.93
2018-11-03T13:40:20.734Z,14.83
2018-11-03T13:41:24.870Z,16.25
2018-11-03T13:42:29.176Z,15.75
2018-11-03T13:43:40.898Z,14.65
2018-11-03T13:44:45.160Z,15.10
2018-11-03T13:45:49.262Z,13.83
2018-11-03T13:46:53.349Z,14.40
2018-11-03T13:47:57.671Z,13.38
2018-11-03T13:49:02.455Z,15.40